San Dimas, CA (91773)

7:38 AM PDT on August 28, 2014 (GMT -0700)
KCASANDI182 | Change Station
CLOSE
Current Station
Personal Weather Station
Location: San Dimas, CA
Elevation: 902 ft
Nearby Weather Stations

Elev 902 ft 34.10 °N, 117.81 °W | Updated 2 minutes ago

Clear
Clear
76.5 °F
Feels Like 78 °F
N
2.0
Wind Variable Wind from NE
Gusts 2.0 mph

Today
High -- | Low -- °F
--% Chance of Precip.
Yesterday
High -- | Low -- °F
Precip. -- in
6:22 AM 7:22 PM
Waxing Crescent, 8% visible
Pressure 30.05 in
Visibility 10.0 miles
Clouds Clear
Heat Index 78 °F
Dew Point 56 °F
Humidity 49%
Rainfall 0.00 in
Snow Depth Not available.
UV 0 out of 12
Pollen 7.80 out of 12
PM2.5 Moderate
Flu Activity Not available.
METAR KPOC 281347Z VRB03KT 10SM CLR 20/10 A3005

More Conditions Fewer Conditions

Pressure 30.05 in
Visibility 10.0 miles
Clouds Clear
Heat Index 78 °F
Dew Point 56 °F
Humidity 49%
Rainfall 0.00 in
Snow Depth Not available.
UV 0 out of 12
Pollen 7.80 out of 12
PM2.5 Moderate
Flu Activity Not available.
METAR KPOC 281347Z VRB03KT 10SM CLR 20/10 A3005

More Conditions Fewer Conditions

10-Day Weather Forecast

Almanac

Astronomy

Aug. 28, 2014 Rise Set
Actual Time 6:22 AM PDT 7:22 PM PDT
Civil Twilight 5:56 AM PDT 7:47 PM PDT
Nautical Twilight 5:25 AM PDT 8:18 PM PDT
Astronomical Twilight 4:54 AM PDT 8:49 PM PDT
Moon 9:08 AM PDT 8:59 PM PDT
Length of Visible Light 13h 51m
Length of Day
13h 00m
Tomorrow will be 2m 0s shorter.
Waxing Crescent, 8% of the Moon is Illuminated
Today
Waxing Crescent
Sep 2
First Quarter
Sep 8
Full
Sep 15
Last Quarter
Sep 24
New

Today's Extremes

State Highs State Lows

Community

WunderPhotos

Upload Photos

1,747,963 photos uploaded!

Nearby

Air Quality

  Air Quality AQ Index Pollutant
Yesterday Moderate
OZONE
Yesterday Good
PM10
Current Moderate
PM2.5
Thursday Good
PM10
Thursday Moderate
OZONE
Thursday Good
CO
Thursday Good
NO2

Snow Depth

Station Depth Elevation
Leavitt Lake 0 in 9400 ft
Leavitt Meadows 1 in 7200 ft
Sonora Pass 0 in 8800 ft
Summit Meadow 1 in 9122 ft
Monitor Pass 0 in 8350 ft

Earthquake Activity

City Distance Mag. Time & Date
San Fernando, California 35 miles 2.5 4:57 AM PDT
2014-08-26
Minimum magnitude displayed is 2.5.

Coastal Water Temperatures

Place Temperature
No Stations Reporting

Nearby Weather Stations